Time;durP1;ratioP1;P1;durP2;ratioP2;P2;SDS_P1;SDS_P2;PMS_P1;PMS_P2;Temp;Humidity;BMP_temperature;BMP_pressure;BME280_temperature;BME280_humidity;BME280_pressure;Samples;Min_cycle;Max_cycle;Signal;HPM_P1;HPM_P2
2024/03/31 00:01:52;;;;;;;892.63;789.47;;;6.80;99.90;;;;;;5076219;28;21024;-67
2024/03/31 00:04:18;;;;;;;916.00;776.60;;;6.80;99.90;;;;;;5075158;28;20488;-67
2024/03/31 00:06:46;;;;;;;922.40;788.53;;;6.70;99.90;;;;;;5083165;28;20195;-66
2024/03/31 00:09:12;;;;;;;919.00;774.00;;;6.80;99.90;;;;;;5083119;28;20461;-66
2024/03/31 00:11:38;;;;;;;912.70;784.13;;;6.90;99.90;;;;;;5082800;28;20442;-66
2024/03/31 00:14:05;;;;;;;895.97;786.70;;;6.80;99.90;;;;;;5079071;28;20473;-67
2024/03/31 00:16:32;;;;;;;884.00;786.50;;;6.70;99.90;;;;;;5077440;28;20200;-66
2024/03/31 00:18:59;;;;;;;898.20;800.40;;;6.70;99.90;;;;;;5078374;28;20457;-66
2024/03/31 00:21:25;;;;;;;889.10;791.07;;;6.60;99.90;;;;;;5078171;28;20478;-67
2024/03/31 00:23:52;;;;;;;882.27;784.97;;;6.50;99.90;;;;;;5082583;28;20485;-67
2024/03/31 00:26:18;;;;;;;887.90;786.03;;;6.40;99.90;;;;;;5074153;28;20295;-67
2024/03/31 00:28:46;;;;;;;881.47;777.67;;;6.40;99.90;;;;;;5073417;28;20549;-66
2024/03/31 00:31:12;;;;;;;880.37;778.60;;;6.30;99.90;;;;;;5082412;28;20204;-67
2024/03/31 00:33:41;;;;;;;887.63;788.17;;;6.30;99.90;;;;;;5082533;28;21006;-67
2024/03/31 00:36:09;;;;;;;904.43;788.60;;;6.20;99.90;;;;;;5074182;28;20586;-67
2024/03/31 00:38:36;;;;;;;896.37;770.03;;;6.30;99.90;;;;;;5074613;28;20493;-67
2024/03/31 00:41:02;;;;;;;904.10;774.87;;;6.50;99.90;;;;;;5085632;28;20477;-66
2024/03/31 00:43:29;;;;;;;912.90;757.23;;;6.50;99.90;;;;;;5077271;28;20493;-66
2024/03/31 00:45:54;;;;;;;910.17;776.60;;;6.60;99.90;;;;;;5082181;28;20457;-67
2024/03/31 00:48:22;;;;;;;900.73;795.40;;;6.70;99.90;;;;;;5081912;28;20458;-67
2024/03/31 00:50:49;;;;;;;896.77;761.93;;;6.70;99.90;;;;;;5082101;28;20258;-67
2024/03/31 00:53:16;;;;;;;899.30;760.43;;;6.60;99.90;;;;;;5082056;28;20516;-67
2024/03/31 00:55:41;;;;;;;882.87;771.83;;;6.70;99.90;;;;;;5081845;28;20453;-66
2024/03/31 00:58:08;;;;;;;890.63;767.03;;;6.60;99.90;;;;;;5079298;28;20467;-67
2024/03/31 01:00:34;;;;;;;908.60;758.00;;;6.60;99.90;;;;;;5076300;28;20224;-67
2024/03/31 01:03:01;;;;;;;917.77;769.70;;;6.50;99.90;;;;;;5081828;28;20561;-67
2024/03/31 01:05:27;;;;;;;910.17;770.60;;;6.50;99.90;;;;;;5081917;28;20200;-67
2024/03/31 01:07:55;;;;;;;945.00;773.63;;;6.50;99.90;;;;;;5073252;28;20489;-66
2024/03/31 01:10:21;;;;;;;957.63;747.10;;;6.40;99.90;;;;;;5081325;28;20438;-67
2024/03/31 01:12:48;;;;;;;956.13;751.77;;;6.50;99.90;;;;;;5081736;28;20498;-67
2024/03/31 01:15:14;;;;;;;953.73;752.00;;;6.50;99.90;;;;;;5081984;28;20447;-67
2024/03/31 01:17:41;;;;;;;943.27;767.20;;;6.40;99.90;;;;;;5073087;28;20461;-67
2024/03/31 01:20:07;;;;;;;978.20;767.43;;;6.40;99.90;;;;;;5072985;28;20529;-67
2024/03/31 01:22:35;;;;;;;984.40;763.10;;;6.40;99.90;;;;;;5073276;28;20520;-67
2024/03/31 01:25:03;;;;;;;926.30;758.70;;;6.50;99.90;;;;;;5073384;28;20537;-67
2024/03/31 01:27:30;;;;;;;942.77;769.43;;;6.50;99.90;;;;;;5081452;28;20497;-67
2024/03/31 01:29:55;;;;;;;946.87;766.57;;;6.50;99.90;;;;;;5080823;28;20470;-67
2024/03/31 01:32:22;;;;;;;960.60;751.87;;;6.50;99.90;;;;;;5081411;28;20453;-67
2024/03/31 01:34:48;;;;;;;936.60;750.20;;;6.50;99.90;;;;;;5072869;28;20219;-67
2024/03/31 01:37:15;;;;;;;933.27;766.50;;;6.50;99.90;;;;;;5079195;28;20489;-66
2024/03/31 01:39:41;;;;;;;952.67;757.60;;;6.50;99.90;;;;;;5073783;28;20457;-67
2024/03/31 01:42:09;;;;;;;946.17;771.33;;;6.50;99.90;;;;;;5072791;28;20478;-67
2024/03/31 01:44:36;;;;;;;937.17;758.60;;;6.50;99.90;;;;;;5073731;28;20227;-67
2024/03/31 01:47:03;;;;;;;898.17;747.13;;;6.40;99.90;;;;;;5079591;28;20482;-67
2024/03/31 01:49:29;;;;;;;906.13;757.87;;;6.40;99.90;;;;;;5073520;28;20461;-67
2024/03/31 01:51:56;;;;;;;913.50;762.53;;;6.40;99.90;;;;;;5072510;28;20446;-67
2024/03/31 01:54:22;;;;;;;912.03;746.43;;;6.50;99.90;;;;;;5074144;28;20231;-66
2024/03/31 01:56:49;;;;;;;924.47;765.60;;;6.50;99.90;;;;;;5075581;28;20474;-67
2024/03/31 01:59:16;;;;;;;918.73;767.87;;;6.60;99.90;;;;;;5080624;28;20454;-67
2024/03/31 02:01:43;;;;;;;923.13;764.37;;;6.60;99.90;;;;;;5080662;28;20505;-67
2024/03/31 02:04:08;;;;;;;921.07;755.80;;;6.70;99.90;;;;;;5072316;28;20561;-66
2024/03/31 02:06:35;;;;;;;936.57;755.77;;;6.80;99.90;;;;;;5072126;28;20537;-67
2024/03/31 02:09:01;;;;;;;932.77;766.33;;;6.80;99.90;;;;;;5071990;28;20210;-67
2024/03/31 02:11:28;;;;;;;947.20;773.50;;;6.80;99.90;;;;;;5072413;28;20454;-67
2024/03/31 02:13:53;;;;;;;968.10;784.63;;;6.70;99.90;;;;;;5072252;28;20311;-67
2024/03/31 02:16:23;;;;;;;964.90;785.57;;;6.80;99.90;;;;;;5072254;28;20907;-67
2024/03/31 02:18:49;;;;;;;971.07;782.73;;;6.80;99.90;;;;;;5071165;28;20200;-67
2024/03/31 02:21:15;;;;;;;951.77;783.13;;;6.90;99.90;;;;;;5071773;28;20478;-67
2024/03/31 02:23:41;;;;;;;922.43;785.80;;;6.90;99.90;;;;;;5072035;28;20223;-67
2024/03/31 02:26:08;;;;;;;951.03;774.50;;;7.10;99.90;;;;;;5080332;28;20553;-67
2024/03/31 02:28:35;;;;;;;951.10;765.90;;;7.10;99.90;;;;;;5072368;28;20204;-67
2024/03/31 02:31:02;;;;;;;939.27;755.70;;;7.20;99.90;;;;;;5079144;28;20462;-67
2024/03/31 02:33:29;;;;;;;930.83;754.30;;;7.30;99.90;;;;;;5080155;28;20476;-67
2024/03/31 02:35:56;;;;;;;943.47;765.17;;;7.40;99.90;;;;;;5075530;28;20453;-67
2024/03/31 02:38:21;;;;;;;931.20;760.47;;;7.40;99.90;;;;;;5075597;28;20450;-66
2024/03/31 02:40:48;;;;;;;904.97;734.23;;;7.50;99.90;;;;;;5071897;28;20485;-67
2024/03/31 02:43:14;;;;;;;952.20;772.87;;;7.50;99.90;;;;;;5071719;28;20306;-67
2024/03/31 02:45:41;;;;;;;906.60;758.90;;;7.60;99.90;;;;;;5080086;28;20537;-67
2024/03/31 02:48:07;;;;;;;926.03;772.40;;;7.70;99.90;;;;;;5071265;28;20195;-67
2024/03/31 02:50:35;;;;;;;924.53;757.97;;;7.80;99.90;;;;;;5071546;28;20968;-67
2024/03/31 02:53:01;;;;;;;934.10;759.77;;;7.90;99.90;;;;;;5071919;28;20477;-67
2024/03/31 02:55:27;;;;;;;897.53;759.83;;;8.00;99.90;;;;;;5071559;28;20451;-67
2024/03/31 02:57:53;;;;;;;964.53;770.37;;;8.10;99.90;;;;;;5071699;28;20218;-67
2024/03/31 03:00:21;;;;;;;954.77;764.83;;;8.20;99.90;;;;;;5078333;28;20453;-66
2024/03/31 03:02:47;;;;;;;969.53;771.80;;;8.30;99.90;;;;;;5072399;28;20421;-67
2024/03/31 03:05:13;;;;;;;998.80;787.20;;;8.30;99.90;;;;;;5072077;28;20462;-66
2024/03/31 03:07:41;;;;;;;972.33;787.83;;;8.40;99.90;;;;;;5080398;28;20588;-67
2024/03/31 03:10:08;;;;;;;985.27;794.40;;;8.40;99.90;;;;;;5071526;28;20469;-67
2024/03/31 03:12:34;;;;;;;959.10;776.43;;;8.40;99.90;;;;;;5072338;28;20443;-67
2024/03/31 03:15:00;;;;;;;992.20;881.03;;;8.40;99.90;;;;;;5078906;28;20853;-66
2024/03/31 03:17:27;;;;;;;1053.30;939.50;;;8.40;99.90;;;;;;5071284;28;20200;-67
2024/03/31 03:19:53;;;;;;;1057.00;943.10;;;8.40;99.90;;;;;;5074652;28;20489;-67
2024/03/31 03:22:20;;;;;;;1111.20;993.07;;;8.40;99.90;;;;;;5083425;28;20481;-67
2024/03/31 03:24:53;;;;;;;1117.80;999.90;;;8.40;99.90;;;;;;5074786;28;20473;-67
2024/03/31 03:27:19;;;;;;;1142.67;999.90;;;8.50;99.90;;;;;;5076255;28;20454;-67
2024/03/31 03:29:46;;;;;;;1133.63;999.90;;;8.40;99.90;;;;;;5070539;28;20473;-66
2024/03/31 03:32:12;;;;;;;1150.93;999.90;;;8.50;99.90;;;;;;5073454;28;20200;-67
2024/03/31 03:34:38;;;;;;;1143.10;999.90;;;8.50;99.90;;;;;;5076710;28;20482;-67
2024/03/31 03:37:05;;;;;;;1137.03;999.90;;;8.50;99.90;;;;;;5088149;28;20575;-66
2024/03/31 03:39:34;;;;;;;1134.83;999.90;;;8.50;99.90;;;;;;5089540;28;20957;-67
2024/03/31 03:42:02;;;;;;;1129.03;999.90;;;8.50;99.90;;;;;;5083091;28;20510;-66
2024/03/31 03:44:28;;;;;;;1124.23;999.90;;;8.50;99.90;;;;;;5086765;28;20522;-66
2024/03/31 03:46:54;;;;;;;1119.20;999.90;;;8.50;99.90;;;;;;5082382;28;20458;-66
2024/03/31 03:49:20;;;;;;;1142.87;999.90;;;8.50;99.90;;;;;;5076796;28;20549;-67
2024/03/31 03:51:47;;;;;;;1139.17;999.90;;;8.50;99.90;;;;;;5083132;28;20451;-67
2024/03/31 03:54:13;;;;;;;1144.30;999.90;;;8.50;99.90;;;;;;5086802;28;20227;-67
2024/03/31 03:56:44;;;;;;;1129.40;999.90;;;8.60;99.90;;;;;;5089101;28;20823;-67
2024/03/31 03:59:11;;;;;;;1122.93;999.90;;;8.60;99.90;;;;;;5081091;28;20208;-67
2024/03/31 04:01:38;;;;;;;1116.17;999.90;;;8.50;99.90;;;;;;5087608;28;20504;-67
2024/03/31 04:04:04;;;;;;;1107.67;998.63;;;8.60;99.90;;;;;;5079518;28;20484;-67
2024/03/31 04:06:31;;;;;;;1118.53;999.90;;;8.60;99.90;;;;;;5077535;28;20961;-67
2024/03/31 04:08:57;;;;;;;1142.67;999.90;;;8.50;99.90;;;;;;5074170;28;20450;-67
2024/03/31 04:11:24;;;;;;;1139.90;999.90;;;8.60;99.90;;;;;;5084115;28;20855;-66
2024/03/31 04:13:50;;;;;;;1144.30;999.90;;;8.50;99.90;;;;;;5074495;28;20480;-66
2024/03/31 04:16:18;;;;;;;1138.57;999.90;;;8.50;99.90;;;;;;5082836;28;20454;-67
2024/03/31 04:18:44;;;;;;;1145.27;999.90;;;8.50;99.90;;;;;;5074217;28;20203;-67
2024/03/31 04:21:11;;;;;;;1132.30;999.90;;;8.50;99.90;;;;;;5080336;28;20853;-67
2024/03/31 04:23:37;;;;;;;1170.97;999.90;;;8.50;99.90;;;;;;5084910;28;20219;-67
2024/03/31 04:26:04;;;;;;;1149.90;999.90;;;8.50;99.90;;;;;;5082532;28;20454;-67
2024/03/31 04:28:30;;;;;;;1155.47;999.90;;;8.50;99.90;;;;;;5073749;28;20954;-67
2024/03/31 04:30:57;;;;;;;1177.47;999.90;;;8.50;99.90;;;;;;5078072;28;20459;-67
2024/03/31 04:33:25;;;;;;;1173.20;999.90;;;8.50;99.90;;;;;;5085901;28;20299;-67
2024/03/31 04:35:52;;;;;;;1168.30;999.90;;;8.50;99.90;;;;;;5077360;28;20461;-67
2024/03/31 04:38:17;;;;;;;1142.93;999.90;;;8.50;99.90;;;;;;5078574;28;20452;-66
2024/03/31 04:40:54;;;;;;;1172.00;999.90;;;8.60;99.90;;;;;;5083281;28;20543;-67
2024/03/31 04:43:19;;;;;;;1148.63;999.90;;;8.60;99.90;;;;;;5084284;28;20229;-66
2024/03/31 04:45:46;;;;;;;1154.30;999.90;;;8.60;99.90;;;;;;5075435;28;20561;-67
2024/03/31 04:48:12;;;;;;;1141.00;999.90;;;8.60;99.90;;;;;;5073738;28;20579;-66
2024/03/31 04:50:40;;;;;;;1145.50;999.90;;;8.60;99.90;;;;;;5073592;28;20467;-67
2024/03/31 04:53:06;;;;;;;1163.17;999.90;;;8.60;99.90;;;;;;5078894;28;20223;-66
2024/03/31 04:55:36;;;;;;;1132.67;999.90;;;8.60;99.90;;;;;;5084912;28;20540;-67
2024/03/31 04:58:02;;;;;;;1152.37;999.90;;;8.60;99.90;;;;;;5082313;28;20206;-67
2024/03/31 05:00:29;;;;;;;1128.37;999.90;;;8.60;99.90;;;;;;5073301;28;21123;-67
2024/03/31 05:02:55;;;;;;;1126.47;999.90;;;8.60;99.90;;;;;;5073154;28;20482;-67
2024/03/31 05:05:21;;;;;;;1104.40;993.77;;;8.60;99.90;;;;;;5078233;28;20820;-67
2024/03/31 05:07:48;;;;;;;1123.50;999.90;;;8.70;99.90;;;;;;5076869;28;20652;-66
2024/03/31 05:10:15;;;;;;;1133.47;999.90;;;8.70;99.90;;;;;;5072831;28;20462;-67
2024/03/31 05:12:41;;;;;;;1127.53;999.90;;;8.60;99.90;;;;;;5075157;28;20804;-67
2024/03/31 05:15:08;;;;;;;1114.50;999.90;;;8.70;99.90;;;;;;5085054;28;20462;-66
2024/03/31 05:17:34;;;;;;;1137.23;999.90;;;8.60;99.90;;;;;;5073034;28;20200;-67
2024/03/31 05:20:01;;;;;;;1120.07;999.90;;;8.70;99.90;;;;;;5077074;28;20842;-66
2024/03/31 05:22:27;;;;;;;1114.87;999.90;;;8.70;99.90;;;;;;5084578;28;20219;-67
2024/03/31 05:24:56;;;;;;;1139.10;999.90;;;8.70;99.90;;;;;;5072910;28;21031;-67
2024/03/31 05:27:21;;;;;;;1165.10;999.90;;;8.60;99.90;;;;;;5081554;28;20192;-65
2024/03/31 05:29:48;;;;;;;1154.53;999.90;;;8.70;99.90;;;;;;5072291;28;20998;-67
2024/03/31 05:32:14;;;;;;;1151.93;999.90;;;8.60;99.90;;;;;;5079368;28;20450;-66
2024/03/31 05:34:41;;;;;;;1130.00;999.90;;;8.60;99.90;;;;;;5074336;28;20474;-66
2024/03/31 05:37:07;;;;;;;1105.93;992.27;;;8.70;99.90;;;;;;5081242;28;20564;-68
2024/03/31 05:39:33;;;;;;;1106.70;994.40;;;8.70;99.90;;;;;;5081632;28;20448;-66
2024/03/31 05:42:00;;;;;;;1061.37;950.27;;;8.70;99.90;;;;;;5087027;28;20216;-66
2024/03/31 05:44:27;;;;;;;1129.23;999.90;;;8.70;99.90;;;;;;5078306;28;20473;-66
2024/03/31 05:46:53;;;;;;;1123.70;999.90;;;8.70;99.90;;;;;;5092516;28;20458;-67
2024/03/31 05:49:20;;;;;;;1134.10;999.90;;;8.80;99.90;;;;;;5092389;28;20468;-67
2024/03/31 05:51:45;;;;;;;1127.10;999.90;;;8.80;99.90;;;;;;5092921;28;20200;-67
2024/03/31 05:54:12;;;;;;;1112.10;999.90;;;8.80;99.90;;;;;;5092015;28;21005;-66
2024/03/31 05:56:38;;;;;;;1117.37;999.90;;;8.70;99.90;;;;;;5091170;28;20236;-67
2024/03/31 05:59:06;;;;;;;1105.30;997.30;;;8.70;99.90;;;;;;5072158;28;20865;-67
2024/03/31 06:01:32;;;;;;;1125.13;999.90;;;8.60;99.90;;;;;;5080594;28;20585;-67
2024/03/31 06:03:59;;;;;;;1131.90;999.90;;;8.50;99.90;;;;;;5071862;28;20481;-67
2024/03/31 06:06:25;;;;;;;1149.93;999.90;;;8.40;99.90;;;;;;5072381;28;20576;-67
2024/03/31 06:08:51;;;;;;;1141.63;999.90;;;8.40;99.90;;;;;;5071999;28;20460;-67
2024/03/31 06:11:18;;;;;;;1121.03;999.90;;;8.30;99.90;;;;;;5080768;28;20227;-66
2024/03/31 06:13:44;;;;;;;1120.07;999.90;;;8.30;99.90;;;;;;5071843;28;20481;-65
2024/03/31 06:16:13;;;;;;;1127.23;999.90;;;8.40;99.90;;;;;;5080413;28;20973;-67
2024/03/31 06:18:39;;;;;;;1143.50;999.90;;;8.40;99.90;;;;;;5075793;28;20491;-67
2024/03/31 06:21:06;;;;;;;1147.03;999.90;;;8.40;99.90;;;;;;5076516;28;20446;-67
2024/03/31 06:23:35;;;;;;;1136.93;999.90;;;8.40;99.90;;;;;;5072047;28;21009;-67
2024/03/31 06:26:01;;;;;;;1151.87;999.90;;;8.50;99.90;;;;;;5076296;28;20826;-67
2024/03/31 06:28:28;;;;;;;1141.63;999.90;;;8.70;99.90;;;;;;5084660;28;20480;-66
2024/03/31 06:30:54;;;;;;;1123.20;999.90;;;8.80;99.90;;;;;;5075068;28;20454;-67
2024/03/31 06:33:22;;;;;;;1142.00;999.90;;;8.90;99.90;;;;;;5066497;28;20477;-67
2024/03/31 06:35:48;;;;;;;1128.70;999.90;;;9.00;99.90;;;;;;5077258;28;20191;-67
2024/03/31 06:38:15;;;;;;;1123.77;999.90;;;9.10;99.90;;;;;;5077297;28;20442;-67
2024/03/31 06:40:40;;;;;;;1127.07;999.90;;;9.30;99.90;;;;;;5074237;28;20196;-67
2024/03/31 06:43:07;;;;;;;1117.43;999.90;;;9.50;99.90;;;;;;5073647;28;20543;-69
2024/03/31 06:45:33;;;;;;;1127.57;999.90;;;9.70;99.90;;;;;;5081472;28;20200;-66
2024/03/31 06:48:00;;;;;;;1124.83;999.90;;;9.90;99.90;;;;;;5077290;28;20465;-67
2024/03/31 06:50:27;;;;;;;1133.33;999.90;;;10.10;99.90;;;;;;5074877;28;20702;-67
2024/03/31 06:52:54;;;;;;;1139.43;999.90;;;10.20;99.90;;;;;;5074893;28;20481;-67
2024/03/31 06:55:20;;;;;;;1138.70;999.90;;;10.20;99.90;;;;;;5082674;28;20456;-67
2024/03/31 06:57:46;;;;;;;1135.00;999.90;;;10.30;99.90;;;;;;5072738;28;20454;-67
2024/03/31 07:00:13;;;;;;;1132.87;999.90;;;10.20;99.90;;;;;;5071179;28;20204;-66
2024/03/31 07:02:40;;;;;;;1144.20;999.90;;;10.20;99.90;;;;;;5072971;28;20837;-67
2024/03/31 07:05:06;;;;;;;1129.90;999.90;;;10.20;99.90;;;;;;5084082;28;20449;-67
2024/03/31 07:07:34;;;;;;;1137.07;999.90;;;10.20;99.90;;;;;;5078578;28;20472;-67
2024/03/31 07:10:00;;;;;;;1159.77;999.90;;;10.20;99.90;;;;;;5079891;28;20205;-67
2024/03/31 07:12:26;;;;;;;1124.03;999.90;;;10.30;99.90;;;;;;5079608;28;20450;-67
2024/03/31 07:14:52;;;;;;;1102.80;999.90;;;10.40;99.90;;;;;;5075389;28;20200;-66
2024/03/31 07:17:19;;;;;;;1108.30;999.90;;;10.60;99.90;;;;;;5075649;28;20464;-67
2024/03/31 07:19:45;;;;;;;1089.13;998.70;;;10.80;99.90;;;;;;5087029;28;20445;-68
2024/03/31 07:22:12;;;;;;;1053.13;967.50;;;10.90;99.90;;;;;;5084442;28;20591;-67
2024/03/31 07:24:39;;;;;;;1017.50;934.93;;;11.10;99.90;;;;;;5076937;28;20224;-66
2024/03/31 07:27:06;;;;;;;981.50;902.47;;;11.20;99.90;;;;;;5082048;28;20462;-67
2024/03/31 07:29:31;;;;;;;906.97;832.23;;;11.40;99.90;;;;;;5083271;28;20465;-66
2024/03/31 07:31:58;;;;;;;887.70;816.23;;;11.60;99.90;;;;;;5084139;28;20442;-67
2024/03/31 07:34:24;;;;;;;851.73;789.13;;;11.70;99.90;;;;;;5082731;28;20242;-67
2024/03/31 07:36:51;;;;;;;844.50;788.63;;;11.70;99.90;;;;;;5079367;28;20454;-67
2024/03/31 07:39:16;;;;;;;822.67;774.53;;;11.80;99.90;;;;;;5074195;28;20211;-67
2024/03/31 07:41:45;;;;;;;826.60;779.20;;;11.80;99.90;;;;;;5079156;28;20845;-67
2024/03/31 07:44:11;;;;;;;830.47;784.13;;;11.80;99.90;;;;;;5079893;28;20222;-67
2024/03/31 07:46:38;;;;;;;816.37;774.93;;;12.00;99.90;;;;;;5084191;28;20912;-67
2024/03/31 07:49:04;;;;;;;784.03;748.33;;;12.10;99.90;;;;;;5076013;28;20452;-67
2024/03/31 07:51:31;;;;;;;825.47;781.97;;;12.20;99.90;;;;;;5079784;28;20454;-67
2024/03/31 07:53:57;;;;;;;716.00;687.67;;;12.30;99.90;;;;;;5077092;28;20473;-66
2024/03/31 07:56:23;;;;;;;700.67;673.53;;;12.40;99.90;;;;;;5074659;28;20450;-67
2024/03/31 07:58:51;;;;;;;706.47;677.87;;;12.50;99.90;;;;;;5073056;28;20196;-67
2024/03/31 08:01:17;;;;;;;623.03;600.43;;;12.60;99.90;;;;;;5073965;28;20476;-67
2024/03/31 08:03:43;;;;;;;620.40;597.70;;;12.70;99.90;;;;;;5074686;28;20484;-67
2024/03/31 08:06:10;;;;;;;507.60;489.10;;;12.80;99.90;;;;;;5074707;28;20937;-67
2024/03/31 08:08:36;;;;;;;247.00;238.10;;;12.90;99.90;;;;;;5082584;28;20667;-67
2024/03/31 08:11:03;;;;;;;205.10;197.73;;;13.00;99.90;;;;;;5074404;28;20848;-68
2024/03/31 08:13:29;;;;;;;141.80;136.47;;;13.10;99.90;;;;;;5074146;28;20567;-66
2024/03/31 08:15:57;;;;;;;51.37;47.97;;;13.30;99.90;;;;;;5075079;28;20906;-68
2024/03/31 08:18:23;;;;;;;33.50;31.20;;;13.50;99.90;;;;;;5072945;28;20204;-67
2024/03/31 08:20:49;;;;;;;16.83;12.10;;;13.70;99.90;;;;;;5073999;28;20461;-67
2024/03/31 08:23:15;;;;;;;12.80;7.87;;;13.80;99.90;;;;;;5074094;28;20497;-68
2024/03/31 08:25:42;;;;;;;10.83;5.90;;;13.90;99.90;;;;;;5073908;28;20835;-67
2024/03/31 08:28:08;;;;;;;14.40;5.17;;;14.20;99.90;;;;;;5081982;28;20200;-66
2024/03/31 08:30:35;;;;;;;11.57;3.70;;;14.60;99.90;;;;;;5074176;28;20876;-67
2024/03/31 08:33:02;;;;;;;20.20;6.73;;;14.70;99.90;;;;;;5078578;28;20217;-67
2024/03/31 08:35:29;;;;;;;10.47;3.70;;;14.90;99.70;;;;;;5078342;28;20458;-67
2024/03/31 08:37:55;;;;;;;14.73;3.43;;;15.40;99.80;;;;;;5086143;28;20937;-66
2024/03/31 08:40:24;;;;;;;16.10;3.63;;;15.70;97.10;;;;;;5093940;28;20454;-67
2024/03/31 08:42:59;;;;;;;13.83;3.73;;;16.00;93.50;;;;;;5094322;28;20492;-67
2024/03/31 08:45:27;;;;;;;10.70;2.93;;;16.00;92.50;;;;;;5078010;28;20949;-67
2024/03/31 08:47:56;;;;;;;15.87;2.57;;;16.00;82.50;;;;;;5073999;28;20451;-67
2024/03/31 08:50:26;;;;;;;12.70;3.80;;;16.10;82.50;;;;;;5081838;28;20466;-67
2024/03/31 08:52:52;;;;;;;15.30;4.00;;;16.20;82.60;;;;;;5081597;28;20467;-67
2024/03/31 08:55:19;;;;;;;17.03;3.37;;;16.50;82.80;;;;;;5073819;28;20482;-68
2024/03/31 08:57:45;;;;;;;16.47;3.67;;;16.90;83.20;;;;;;5073860;28;20450;-67
2024/03/31 09:00:13;;;;;;;11.43;3.70;;;16.80;75.10;;;;;;5079453;28;20832;-67
2024/03/31 09:02:39;;;;;;;11.33;2.37;;;17.00;67.40;;;;;;5084259;28;20908;-67
2024/03/31 09:05:07;;;;;;;9.77;2.53;;;17.00;67.40;;;;;;5073898;28;20539;-67
2024/03/31 09:07:36;;;;;;;17.53;3.37;;;17.40;67.70;;;;;;5081839;28;20246;-66
2024/03/31 09:10:04;;;;;;;17.50;3.07;;;17.10;60.00;;;;;;5073278;28;20473;-67
2024/03/31 09:12:31;;;;;;;15.27;3.03;;;17.20;59.30;;;;;;5073489;28;20454;-66
2024/03/31 09:14:57;;;;;;;11.93;2.40;;;17.30;55.00;;;;;;5073419;28;20454;-66
2024/03/31 09:17:23;;;;;;;10.83;2.20;;;17.60;67.80;;;;;;5081161;28;20500;-66
2024/03/31 09:19:50;;;;;;;13.63;3.10;;;17.90;59.90;;;;;;5073485;28;20973;-67
2024/03/31 09:22:16;;;;;;;9.20;2.10;;;18.10;51.70;;;;;;5073493;28;20649;-67
2024/03/31 09:24:46;;;;;;;11.20;2.80;;;18.30;51.60;;;;;;5081565;28;20473;-67
2024/03/31 09:27:11;;;;;;;12.87;2.73;;;18.70;52.10;;;;;;5073536;28;20457;-67
2024/03/31 09:29:41;;;;;;;11.47;2.87;;;18.60;51.80;;;;;;5073797;28;20548;-67
2024/03/31 09:32:11;;;;;;;9.83;1.90;;;18.40;42.90;;;;;;5079520;28;20453;-67
2024/03/31 09:34:43;;;;;;;9.63;2.17;;;18.60;43.10;;;;;;5072687;28;20554;-67
2024/03/31 09:37:09;;;;;;;12.10;2.00;;;18.40;41.80;;;;;;5073099;28;20462;-67
2024/03/31 09:39:36;;;;;;;8.70;2.10;;;18.30;33.70;;;;;;5072501;28;20806;-67
2024/03/31 09:42:05;;;;;;;11.30;2.70;;;18.20;33.60;;;;;;5081354;28;21001;-67
2024/03/31 09:44:32;;;;;;;14.50;4.57;;;18.10;33.50;;;;;;5073268;28;20482;-67
2024/03/31 09:46:59;;;;;;;15.70;2.27;;;18.30;33.70;;;;;;5080443;28;20450;-66
2024/03/31 09:49:29;;;;;;;13.83;2.60;;;18.60;34.00;;;;;;5072558;28;20520;-67
2024/03/31 09:51:58;;;;;;;8.60;2.33;;;18.70;34.10;;;;;;5072886;28;20453;-67
2024/03/31 09:54:32;;;;;;;12.77;2.37;;;18.60;33.90;;;;;;5072430;28;20470;-66
2024/03/31 09:57:06;;;;;;;12.50;3.17;;;18.60;33.90;;;;;;5084962;28;20978;-67
2024/03/31 09:59:40;;;;;;;17.33;3.13;;;18.30;33.40;;;;;;5075025;28;20458;-68
2024/03/31 10:02:08;;;;;;;6.20;1.90;;;18.60;31.30;;;;;;5081009;28;20846;-67
2024/03/31 10:04:41;;;;;;;11.90;2.00;;;18.90;30.00;;;;;;5080842;28;20466;-67
2024/03/31 10:07:08;;;;;;;9.53;2.13;;;19.30;26.50;;;;;;5072235;28;20461;-64
2024/03/31 10:09:36;;;;;;;20.33;2.17;;;19.90;22.20;;;;;;5071858;28;20557;-65
2024/03/31 10:12:04;;;;;;;7.37;2.00;;;19.90;19.60;;;;;;5076573;28;20445;-65
2024/03/31 10:14:31;;;;;;;15.37;2.97;;;20.60;20.10;;;;;;5075619;28;20855;-65
2024/03/31 10:16:57;;;;;;;11.33;2.03;;;20.30;19.80;;;;;;5072194;28;20465;-64
2024/03/31 10:19:25;;;;;;;10.40;2.10;;;20.50;13.90;;;;;;5079493;28;20453;-64
2024/03/31 10:21:53;;;;;;;14.80;2.50;;;21.20;13.10;;;;;;5080690;28;20455;-64
2024/03/31 10:24:21;;;;;;;11.93;2.23;;;21.30;5.50;;;;;;5072209;28;20569;-64
2024/03/31 10:26:48;;;;;;;10.93;2.10;;;20.90;8.80;;;;;;5071917;28;20458;-65
2024/03/31 10:29:17;;;;;;;8.10;2.10;;;20.90;7.80;;;;;;5080050;28;20461;-64
2024/03/31 10:31:43;;;;;;;9.80;2.37;;;20.70;5.10;;;;;;5080483;28;20536;-64
2024/03/31 10:34:11;;;;;;;9.07;1.90;;;20.80;12.80;;;;;;5077297;28;20571;-64
2024/03/31 10:36:38;;;;;;;12.83;2.10;;;21.00;6.60;;;;;;5075362;28;20602;-64
2024/03/31 10:39:06;;;;;;;12.13;2.40;;;21.80;5.80;;;;;;5078429;28;20683;-65
2024/03/31 10:41:32;;;;;;;11.30;2.67;;;22.20;3.10;;;;;;5071390;28;20545;-65
2024/03/31 10:44:01;;;;;;;9.40;2.20;;;22.20;1.00;;;;;;5071956;28;20478;-65
2024/03/31 10:46:28;;;;;;;7.00;1.93;;;21.50;1.00;;;;;;5071768;28;20451;-64
2024/03/31 10:48:58;;;;;;;9.63;2.03;;;21.10;1.00;;;;;;5083558;28;20466;-65
2024/03/31 10:51:24;;;;;;;11.90;2.90;;;21.70;1.00;;;;;;5084005;28;20537;-63
2024/03/31 10:53:51;;;;;;;8.83;1.83;;;22.00;1.00;;;;;;5073034;28;20474;-64
2024/03/31 10:56:24;;;;;;;18.20;3.27;;;21.70;1.00;;;;;;5078801;28;20449;-65
2024/03/31 10:58:51;;;;;;;14.23;1.93;;;21.30;1.00;;;;;;5072209;28;20879;-64
2024/03/31 11:01:18;;;;;;;10.05;2.25;;;20.90;1.00;;;;;;5071738;28;20845;-65
2024/03/31 11:03:47;;;;;;;10.27;1.73;;;20.40;1.00;;;;;;5079461;28;20459;-67
2024/03/31 11:06:14;;;;;;;11.17;2.00;;;21.30;1.00;;;;;;5074692;28;20450;-67
2024/03/31 11:08:43;;;;;;;11.60;2.00;;;22.80;1.00;;;;;;5086703;28;20445;-66
2024/03/31 11:11:09;;;;;;;17.90;1.83;;;23.50;1.00;;;;;;5080006;28;20903;-66
2024/03/31 11:13:38;;;;;;;8.63;1.90;;;23.30;1.00;;;;;;5086594;28;20465;-66
2024/03/31 11:16:05;;;;;;;10.63;2.33;;;23.70;1.00;;;;;;5079125;28;20474;-66
2024/03/31 11:18:32;;;;;;;8.63;2.30;;;23.20;1.00;;;;;;5078182;28;20536;-65
2024/03/31 11:21:06;;;;;;;7.90;1.80;;;22.70;1.00;;;;;;5086669;28;20855;-65
2024/03/31 11:23:34;;;;;;;8.90;2.27;;;22.60;1.00;;;;;;5094915;28;20477;-65
2024/03/31 11:26:00;;;;;;;7.70;1.50;;;22.90;1.00;;;;;;5085816;28;20442;-65
2024/03/31 11:28:27;;;;;;;13.27;2.10;;;22.90;1.00;;;;;;5077760;28;20464;-66
2024/03/31 11:30:53;;;;;;;9.53;1.93;;;22.70;1.00;;;;;;5092915;28;20477;-66
2024/03/31 11:33:20;;;;;;;9.23;1.80;;;22.70;1.00;;;;;;5081804;28;20972;-68
2024/03/31 11:35:46;;;;;;;6.53;1.63;;;22.40;1.00;;;;;;5093890;28;20195;-68
2024/03/31 11:38:16;;;;;;;7.90;2.03;;;21.30;1.00;;;;;;5076599;28;20946;-64
2024/03/31 11:40:42;;;;;;;9.50;1.70;;;21.30;1.00;;;;;;5079454;28;20981;-65
2024/03/31 11:43:09;;;;;;;7.10;1.60;;;21.20;1.00;;;;;;5071062;28;20486;-65
2024/03/31 11:45:35;;;;;;;9.20;1.57;;;21.30;1.00;;;;;;5071170;28;20868;-65
2024/03/31 11:48:03;;;;;;;10.83;1.90;;;21.70;1.00;;;;;;5071147;28;20459;-66
2024/03/31 11:50:29;;;;;;;11.80;2.00;;;21.80;1.00;;;;;;5079332;28;20454;-66
2024/03/31 11:52:56;;;;;;;10.00;2.03;;;21.70;1.00;;;;;;5095810;28;20846;-67
2024/03/31 11:55:23;;;;;;;6.83;1.60;;;21.80;1.00;;;;;;5079207;28;20967;-66
2024/03/31 11:57:50;;;;;;;9.10;2.23;;;22.10;1.00;;;;;;5074804;28;20470;-67
2024/03/31 12:00:16;;;;;;;10.57;1.90;;;22.10;1.00;;;;;;5074198;28;20460;-66
2024/03/31 12:02:43;;;;;;;7.30;1.40;;;22.10;1.00;;;;;;5074404;28;20478;-67
2024/03/31 12:05:17;;;;;;;14.33;1.97;;;22.50;1.00;;;;;;5082888;28;20454;-67
2024/03/31 12:07:45;;;;;;;9.47;1.60;;;23.00;1.00;;;;;;5082912;28;20454;-67
2024/03/31 12:10:11;;;;;;;6.73;1.53;;;22.60;1.00;;;;;;5089467;28;20956;-67
2024/03/31 12:12:39;;;;;;;24.00;3.13;;;22.10;1.00;;;;;;5085843;28;20456;-67
2024/03/31 12:15:06;;;;;;;14.00;1.97;;;21.90;1.00;;;;;;5074273;28;20210;-68
2024/03/31 12:17:33;;;;;;;12.37;1.70;;;21.80;1.00;;;;;;5074344;28;20450;-67
2024/03/31 12:20:03;;;;;;;8.90;1.40;;;22.20;1.00;;;;;;5084218;28;20536;-67